Time;durP1;ratioP1;P1;durP2;ratioP2;P2;SDS_P1;SDS_P2;PMS_P1;PMS_P2;Temp;Humidity;BMP_temperature;BMP_pressure;BME280_temperature;BME280_humidity;BME280_pressure;Samples;Min_cycle;Max_cycle;Signal;HPM_P1;HPM_P2
2020/12/27 00:01:38;;;;;;;2.80;1.80;;;4.70;99.90;;;;;;4979169;28;20219;-79
2020/12/27 00:04:03;;;;;;;3.03;1.97;;;4.70;99.90;;;;;;4979035;28;20210;-79
2020/12/27 00:06:29;;;;;;;3.40;2.00;;;4.70;99.90;;;;;;4978815;28;20189;-79
2020/12/27 00:08:54;;;;;;;2.97;2.00;;;4.70;99.90;;;;;;4979063;28;20693;-79
2020/12/27 00:11:20;;;;;;;3.17;1.77;;;4.70;99.90;;;;;;4978992;28;20187;-79
2020/12/27 00:13:45;;;;;;;3.87;1.83;;;4.80;99.90;;;;;;4979042;28;20199;-79
2020/12/27 00:16:11;;;;;;;2.37;1.80;;;4.80;99.90;;;;;;4978694;28;20179;-80
2020/12/27 00:18:36;;;;;;;2.30;1.90;;;4.70;99.90;;;;;;4995733;28;20183;-79
2020/12/27 00:21:02;;;;;;;2.93;2.00;;;4.80;99.90;;;;;;4978892;28;20183;-79
2020/12/27 00:23:27;;;;;;;2.33;1.77;;;4.80;99.90;;;;;;4978945;28;20202;-80
2020/12/27 00:25:53;;;;;;;2.30;1.70;;;4.80;99.90;;;;;;4978439;28;20187;-79
2020/12/27 00:28:18;;;;;;;2.07;1.80;;;4.80;99.90;;;;;;4979342;28;20632;-79
2020/12/27 00:30:44;;;;;;;1.60;1.40;;;4.80;99.90;;;;;;4978645;28;20221;-79
2020/12/27 00:33:09;;;;;;;1.63;1.33;;;4.90;99.90;;;;;;4978805;28;20183;-79
2020/12/27 00:35:35;;;;;;;2.80;1.70;;;4.80;99.90;;;;;;4978771;28;20183;-80
2020/12/27 00:38:01;;;;;;;2.57;2.10;;;4.90;99.90;;;;;;4979342;28;20210;-79
2020/12/27 00:40:26;;;;;;;1.57;1.47;;;4.80;99.90;;;;;;4978471;28;20226;-80
2020/12/27 00:42:52;;;;;;;3.73;1.90;;;4.90;99.90;;;;;;4979005;28;20195;-79
2020/12/27 00:45:17;;;;;;;2.03;1.67;;;4.80;99.90;;;;;;4978578;28;20199;-79
2020/12/27 00:47:44;;;;;;;3.73;1.60;;;4.80;99.90;;;;;;4978522;28;20197;-78
2020/12/27 00:50:10;;;;;;;2.07;1.63;;;4.80;99.90;;;;;;4979042;28;20236;-79
2020/12/27 00:52:35;;;;;;;1.73;1.50;;;4.80;99.90;;;;;;4978660;28;20182;-79
2020/12/27 00:55:01;;;;;;;1.87;1.53;;;4.80;99.90;;;;;;5030670;23;20255;-78
2020/12/27 00:57:26;;;;;;;3.40;1.50;;;4.80;99.90;;;;;;5015543;28;20178;-79
2020/12/27 00:59:52;;;;;;;1.73;1.47;;;4.70;99.90;;;;;;5014469;28;20213;-79
2020/12/27 01:02:17;;;;;;;2.10;1.50;;;4.70;99.90;;;;;;5030679;28;20229;-78
2020/12/27 01:04:43;;;;;;;1.73;1.63;;;4.70;99.90;;;;;;5015682;28;20214;-79
2020/12/27 01:07:08;;;;;;;2.73;2.10;;;4.70;99.90;;;;;;5017062;28;20175;-79
2020/12/27 01:09:34;;;;;;;1.93;1.60;;;4.70;99.90;;;;;;5016510;28;20220;-79
2020/12/27 01:11:59;;;;;;;1.87;1.57;;;4.80;99.90;;;;;;5031784;28;20182;-82
2020/12/27 01:14:25;;;;;;;3.17;1.60;;;4.80;99.90;;;;;;5015978;28;20213;-79
2020/12/27 01:16:50;;;;;;;2.40;1.60;;;4.80;99.90;;;;;;5014735;28;20178;-78
2020/12/27 01:19:17;;;;;;;1.97;1.50;;;4.80;99.90;;;;;;5016020;28;20214;-79
2020/12/27 01:21:43;;;;;;;1.67;1.27;;;4.80;99.90;;;;;;5014637;28;20185;-79
2020/12/27 01:24:08;;;;;;;1.93;1.20;;;4.80;99.90;;;;;;5031193;28;20222;-79
2020/12/27 01:26:34;;;;;;;2.30;1.40;;;4.80;99.90;;;;;;5015698;28;20535;-80
2020/12/27 01:29:00;;;;;;;2.40;1.37;;;4.80;99.90;;;;;;5015553;28;20216;-79
2020/12/27 01:31:26;;;;;;;1.77;1.30;;;4.80;99.90;;;;;;5014049;28;20637;-81
2020/12/27 01:33:52;;;;;;;2.20;1.40;;;4.80;99.90;;;;;;5018657;28;20208;-80
2020/12/27 01:36:25;;;;;;;1.37;1.10;;;4.80;99.90;;;;;;5021933;28;20189;-79
2020/12/27 01:38:51;;;;;;;1.97;1.50;;;4.70;99.90;;;;;;5018973;28;20189;-79
2020/12/27 01:41:21;;;;;;;1.50;1.40;;;4.70;99.90;;;;;;5031504;28;20177;-82
2020/12/27 01:44:16;;;;;;;1.40;1.30;;;4.70;99.90;;;;;;5014758;28;20682;-78
2020/12/27 01:46:44;;;;;;;1.60;1.40;;;4.60;99.90;;;;;;5030822;28;20251;-79
2020/12/27 01:49:09;;;;;;;1.30;1.10;;;4.60;99.90;;;;;;5020786;28;20263;-79
2020/12/27 01:51:35;;;;;;;2.90;1.57;;;4.70;99.90;;;;;;5034825;28;20248;-81
2020/12/27 01:54:01;;;;;;;2.70;1.53;;;4.60;99.90;;;;;;5034088;28;20268;-79
2020/12/27 01:56:29;;;;;;;1.83;1.67;;;4.60;99.90;;;;;;5017804;28;20621;-78
2020/12/27 01:59:14;;;;;;;4.60;1.33;;;4.60;99.90;;;;;;5036453;28;20245;-83
2020/12/27 02:01:39;;;;;;;1.90;1.20;;;4.60;99.90;;;;;;5018586;28;20275;-78
2020/12/27 02:04:05;;;;;;;1.80;1.23;;;4.70;99.90;;;;;;5017461;28;20207;-80
2020/12/27 02:06:31;;;;;;;1.30;1.20;;;4.60;99.90;;;;;;5017808;28;20233;-81
2020/12/27 02:08:57;;;;;;;1.27;1.10;;;4.70;99.90;;;;;;5034421;28;20272;-79
2020/12/27 02:11:23;;;;;;;1.80;1.20;;;4.60;99.90;;;;;;5018147;28;20179;-79
2020/12/27 02:13:53;;;;;;;1.23;1.00;;;4.60;99.90;;;;;;5018508;28;20226;-78
2020/12/27 02:16:21;;;;;;;1.87;1.03;;;4.60;99.90;;;;;;5017274;28;20600;-79
2020/12/27 02:18:49;;;;;;;2.20;1.00;;;4.60;99.90;;;;;;5017998;28;20190;-82
2020/12/27 02:21:15;;;;;;;1.73;1.30;;;4.60;99.90;;;;;;5016942;28;20183;-78
2020/12/27 02:23:40;;;;;;;1.80;1.10;;;4.60;99.90;;;;;;5034460;28;20249;-79
2020/12/27 02:26:06;;;;;;;1.40;1.13;;;4.50;99.90;;;;;;5016610;28;20182;-79
2020/12/27 02:28:32;;;;;;;2.67;1.30;;;4.50;99.90;;;;;;5017332;28;20214;-79
2020/12/27 02:30:58;;;;;;;1.10;1.00;;;4.60;99.90;;;;;;5017823;28;20602;-80
2020/12/27 02:33:24;;;;;;;2.97;1.10;;;4.50;99.90;;;;;;5034825;28;20207;-79
2020/12/27 02:35:49;;;;;;;1.33;1.00;;;4.60;99.90;;;;;;5017026;28;20179;-78
2020/12/27 02:38:15;;;;;;;2.63;1.00;;;4.60;99.90;;;;;;5019092;28;20183;-78
2020/12/27 02:40:41;;;;;;;1.47;0.90;;;4.60;99.90;;;;;;5042824;28;20250;-78
2020/12/27 02:43:12;;;;;;;1.37;0.90;;;4.60;99.90;;;;;;5041138;28;20186;-78
2020/12/27 02:45:37;;;;;;;0.97;0.87;;;4.60;99.90;;;;;;5024287;28;20206;-78
2020/12/27 02:48:03;;;;;;;0.83;0.83;;;4.60;99.90;;;;;;5019450;28;20189;-78
2020/12/27 02:50:28;;;;;;;1.33;1.00;;;4.60;99.90;;;;;;5017025;28;20218;-79
2020/12/27 02:52:54;;;;;;;1.10;0.90;;;4.60;99.90;;;;;;5017448;28;20202;-80
2020/12/27 02:55:19;;;;;;;1.43;0.83;;;4.70;99.90;;;;;;5033268;28;20226;-79
2020/12/27 02:57:45;;;;;;;1.00;0.90;;;4.70;99.90;;;;;;5017230;28;20183;-78
2020/12/27 03:00:10;;;;;;;1.83;0.97;;;4.70;99.90;;;;;;5032537;28;20182;-79
2020/12/27 03:02:36;;;;;;;1.00;0.90;;;4.60;99.90;;;;;;5017075;28;20179;-79
2020/12/27 03:05:01;;;;;;;0.93;0.73;;;4.60;99.90;;;;;;5016493;28;20195;-79
2020/12/27 03:07:27;;;;;;;0.90;0.90;;;4.60;99.90;;;;;;5016347;28;20297;-78
2020/12/27 03:09:52;;;;;;;1.10;0.97;;;4.70;99.90;;;;;;5016805;28;20207;-79
2020/12/27 03:12:18;;;;;;;1.17;0.90;;;4.60;99.90;;;;;;5034082;28;20179;-78
2020/12/27 03:14:44;;;;;;;1.30;0.90;;;4.70;99.90;;;;;;5035733;28;20221;-79
2020/12/27 03:17:09;;;;;;;1.13;0.90;;;4.70;99.90;;;;;;5016425;28;20182;-78
2020/12/27 03:19:35;;;;;;;0.77;0.77;;;4.70;99.90;;;;;;5033191;28;20183;-79
2020/12/27 03:22:00;;;;;;;1.17;0.87;;;4.80;99.90;;;;;;5016328;28;20189;-79
2020/12/27 03:24:26;;;;;;;0.93;0.80;;;4.80;99.90;;;;;;5016109;28;20281;-79
2020/12/27 03:26:51;;;;;;;1.33;0.90;;;4.80;99.90;;;;;;5016586;28;20274;-79
2020/12/27 03:29:17;;;;;;;1.27;0.80;;;4.90;99.90;;;;;;5015823;28;20199;-81
2020/12/27 03:31:42;;;;;;;0.70;0.70;;;4.90;99.90;;;;;;5032454;28;20178;-79
2020/12/27 03:34:08;;;;;;;1.17;0.87;;;4.90;99.90;;;;;;5016398;28;20195;-79
2020/12/27 03:36:33;;;;;;;0.67;0.63;;;4.90;99.90;;;;;;5015363;28;20186;-78
2020/12/27 03:38:59;;;;;;;0.57;0.50;;;4.90;99.90;;;;;;5015704;28;20178;-78
2020/12/27 03:41:24;;;;;;;0.73;0.70;;;4.90;99.90;;;;;;5015763;28;20187;-78
2020/12/27 03:43:50;;;;;;;1.10;0.80;;;4.90;99.90;;;;;;5033061;28;20287;-79
2020/12/27 03:46:15;;;;;;;0.70;0.70;;;4.90;99.90;;;;;;5032062;28;20265;-79
2020/12/27 03:48:41;;;;;;;1.07;0.80;;;4.90;99.90;;;;;;5016213;28;20171;-79
2020/12/27 03:51:06;;;;;;;1.17;0.60;;;4.90;99.90;;;;;;5032468;28;20282;-78
2020/12/27 03:53:32;;;;;;;1.70;0.80;;;5.00;99.90;;;;;;5016022;28;20626;-78
2020/12/27 03:55:58;;;;;;;0.70;0.60;;;5.00;99.90;;;;;;5015554;28;20174;-80
2020/12/27 03:58:23;;;;;;;0.97;0.77;;;5.00;99.90;;;;;;5031698;28;20167;-79
2020/12/27 04:00:49;;;;;;;0.70;0.70;;;4.90;99.90;;;;;;5033501;28;20174;-78
2020/12/27 04:03:14;;;;;;;1.47;0.87;;;5.00;99.90;;;;;;5032266;28;20228;-79
2020/12/27 04:05:40;;;;;;;1.00;0.70;;;5.00;99.90;;;;;;5032526;28;20198;-81
2020/12/27 04:08:05;;;;;;;0.83;0.70;;;5.00;99.90;;;;;;5015702;28;20527;-79
2020/12/27 04:10:31;;;;;;;1.00;0.90;;;5.00;99.90;;;;;;5032824;28;20731;-78
2020/12/27 04:12:56;;;;;;;1.00;0.70;;;5.00;99.90;;;;;;5032148;28;20732;-78
2020/12/27 04:15:22;;;;;;;1.03;0.70;;;5.00;99.90;;;;;;5017132;28;20195;-82
2020/12/27 04:17:47;;;;;;;0.90;0.60;;;5.00;99.90;;;;;;5036376;28;20187;-79
2020/12/27 04:20:13;;;;;;;0.90;0.70;;;5.00;99.90;;;;;;5016643;28;20183;-79
2020/12/27 04:22:38;;;;;;;2.10;0.93;;;5.00;99.90;;;;;;5015621;28;20190;-80
2020/12/27 04:25:04;;;;;;;1.07;0.70;;;5.00;99.90;;;;;;5016165;28;20199;-79
2020/12/27 04:27:29;;;;;;;2.17;0.70;;;5.00;99.90;;;;;;5014700;28;20495;-78
2020/12/27 04:29:55;;;;;;;0.60;0.60;;;5.10;99.90;;;;;;5031554;28;20207;-79
2020/12/27 04:32:23;;;;;;;0.60;0.60;;;5.10;99.90;;;;;;5032646;28;20258;-81
2020/12/27 04:34:49;;;;;;;0.70;0.70;;;5.00;99.90;;;;;;5031265;28;20538;-79
2020/12/27 04:37:14;;;;;;;0.93;0.80;;;5.10;99.90;;;;;;5031877;28;20185;-79
2020/12/27 04:39:40;;;;;;;0.87;0.70;;;5.10;99.90;;;;;;5015468;28;20278;-79
2020/12/27 04:42:05;;;;;;;0.87;0.80;;;5.10;99.90;;;;;;5014944;28;20190;-80
2020/12/27 04:44:32;;;;;;;0.60;0.60;;;5.10;99.90;;;;;;5015083;28;20202;-80
2020/12/27 04:46:57;;;;;;;1.07;0.60;;;5.10;99.90;;;;;;5031191;28;20179;-79
2020/12/27 04:49:23;;;;;;;2.80;0.67;;;5.10;99.90;;;;;;5030953;28;20207;-79
2020/12/27 04:51:48;;;;;;;0.70;0.70;;;5.10;99.90;;;;;;5014648;28;20232;-82
2020/12/27 04:54:14;;;;;;;0.60;0.60;;;5.10;99.90;;;;;;5015106;28;20211;-79
2020/12/27 04:56:43;;;;;;;1.00;0.70;;;5.10;99.90;;;;;;5015967;28;20225;-79
2020/12/27 04:59:08;;;;;;;0.80;0.73;;;5.10;99.90;;;;;;5014413;28;20677;-79
2020/12/27 05:01:34;;;;;;;0.63;0.53;;;5.10;99.90;;;;;;5015284;28;20183;-80
2020/12/27 05:03:59;;;;;;;0.90;0.70;;;5.10;99.90;;;;;;5032574;28;20731;-80
2020/12/27 05:06:25;;;;;;;0.87;0.63;;;5.10;99.90;;;;;;5031068;28;20193;-81
2020/12/27 05:08:51;;;;;;;0.73;0.70;;;5.10;99.90;;;;;;5015475;28;20211;-78
2020/12/27 05:11:16;;;;;;;1.23;0.63;;;5.10;99.90;;;;;;5015179;28;20584;-79
2020/12/27 05:13:48;;;;;;;0.50;0.50;;;5.10;99.90;;;;;;5014948;28;20646;-79
2020/12/27 05:16:17;;;;;;;1.30;0.70;;;5.10;99.90;;;;;;5015024;28;20186;-78
2020/12/27 05:18:43;;;;;;;0.93;0.60;;;5.20;99.90;;;;;;5014531;28;20179;-79
2020/12/27 05:21:08;;;;;;;1.23;0.70;;;5.10;99.90;;;;;;5014904;28;20182;-78
2020/12/27 05:23:35;;;;;;;0.93;0.70;;;5.20;99.90;;;;;;5018676;28;20179;-79
2020/12/27 05:26:05;;;;;;;0.73;0.60;;;5.20;99.90;;;;;;5020606;28;20178;-78
2020/12/27 05:28:32;;;;;;;1.00;0.60;;;5.20;99.90;;;;;;5036418;28;20229;-78
2020/12/27 05:30:57;;;;;;;0.60;0.50;;;5.20;99.90;;;;;;5019425;28;20186;-81
2020/12/27 05:33:23;;;;;;;0.70;0.50;;;5.20;99.90;;;;;;5018323;28;20181;-78
2020/12/27 05:35:49;;;;;;;0.60;0.50;;;5.30;99.90;;;;;;5020659;28;20179;-79
2020/12/27 05:38:14;;;;;;;1.23;0.63;;;5.20;99.90;;;;;;5018889;28;20189;-78
2020/12/27 05:40:40;;;;;;;0.60;0.50;;;5.30;99.90;;;;;;5037007;28;20179;-79
2020/12/27 05:43:16;;;;;;;0.97;0.60;;;5.30;99.90;;;;;;5018931;28;20646;-83
2020/12/27 05:45:42;;;;;;;1.00;0.60;;;5.30;99.90;;;;;;5018460;28;20313;-78
2020/12/27 05:48:08;;;;;;;0.87;0.60;;;5.30;99.90;;;;;;5035774;28;20275;-78
2020/12/27 05:50:42;;;;;;;0.50;0.50;;;5.30;99.90;;;;;;5035055;28;20296;-80
2020/12/27 05:53:19;;;;;;;0.73;0.50;;;5.30;99.90;;;;;;5019228;28;20170;-78
2020/12/27 05:55:46;;;;;;;1.77;0.70;;;5.30;99.90;;;;;;5035439;28;20209;-79
2020/12/27 05:58:25;;;;;;;1.13;0.60;;;5.30;99.90;;;;;;5018400;28;20166;-77
2020/12/27 06:00:50;;;;;;;0.80;0.60;;;5.30;99.90;;;;;;5037172;28;20197;-81
2020/12/27 06:03:18;;;;;;;0.60;0.60;;;5.30;99.90;;;;;;5036838;28;20549;-78
2020/12/27 06:05:56;;;;;;;0.50;0.50;;;5.30;99.90;;;;;;5034038;28;20194;-78
2020/12/27 06:08:27;;;;;;;1.27;0.50;;;5.30;99.90;;;;;;5051677;28;20648;-78
2020/12/27 06:10:56;;;;;;;0.60;0.60;;;5.30;99.90;;;;;;5035608;28;20206;-80
2020/12/27 06:13:58;;;;;;;0.60;0.60;;;5.40;99.90;;;;;;5051168;28;20573;-78
2020/12/27 06:16:45;;;;;;;0.40;0.40;;;5.40;99.90;;;;;;5050690;28;20192;-79
2020/12/27 06:19:23;;;;;;;0.50;0.50;;;5.40;99.90;;;;;;5035024;28;20189;-79
2020/12/27 06:22:05;;;;;;;0.93;0.57;;;5.40;99.90;;;;;;5051121;28;20206;-82
2020/12/27 06:24:31;;;;;;;1.27;0.60;;;5.40;99.90;;;;;;5017651;28;20619;-82
2020/12/27 06:26:57;;;;;;;0.50;0.50;;;5.40;99.90;;;;;;5017725;28;20182;-79
2020/12/27 06:29:23;;;;;;;0.57;0.50;;;5.40;99.90;;;;;;5018132;28;20202;-82
2020/12/27 06:31:50;;;;;;;0.90;0.60;;;5.40;99.90;;;;;;5017273;28;20261;-80
2020/12/27 06:34:16;;;;;;;0.73;0.50;;;5.40;99.90;;;;;;5017443;28;20203;-78
2020/12/27 06:36:42;;;;;;;0.60;0.60;;;5.50;99.90;;;;;;5019258;28;20540;-79
2020/12/27 06:39:27;;;;;;;0.50;0.50;;;5.50;99.90;;;;;;5022840;28;20191;-81
2020/12/27 06:42:08;;;;;;;1.33;0.60;;;5.50;99.90;;;;;;5047573;28;20180;-80
2020/12/27 06:44:46;;;;;;;1.10;0.70;;;5.50;99.90;;;;;;5057606;28;20242;-80
2020/12/27 06:47:12;;;;;;;0.80;0.60;;;5.40;99.90;;;;;;5057785;28;20217;-81
2020/12/27 06:49:38;;;;;;;0.80;0.70;;;5.40;99.90;;;;;;5063080;28;20289;-84
2020/12/27 06:52:23;;;;;;;0.90;0.60;;;5.40;99.90;;;;;;5042584;28;20268;-83
2020/12/27 06:54:50;;;;;;;0.60;0.60;;;5.40;99.90;;;;;;5057545;23;20719;-79
2020/12/27 06:57:51;;;;;;;1.10;0.60;;;5.40;99.90;;;;;;5012510;28;20803;-78
2020/12/27 07:00:20;;;;;;;0.50;0.50;;;5.40;99.90;;;;;;5016321;28;20273;-79
2020/12/27 07:02:46;;;;;;;0.80;0.70;;;5.40;99.90;;;;;;5013086;28;20196;-79
2020/12/27 07:05:31;;;;;;;0.70;0.60;;;5.50;99.90;;;;;;4989502;28;20199;-78
2020/12/27 07:07:57;;;;;;;0.70;0.70;;;5.40;99.90;;;;;;4998006;28;20647;-78
2020/12/27 07:10:23;;;;;;;1.13;0.70;;;5.50;99.90;;;;;;5014741;28;20206;-78
2020/12/27 07:12:49;;;;;;;0.60;0.60;;;5.40;99.90;;;;;;4997527;28;20175;-78
2020/12/27 07:15:15;;;;;;;0.40;0.40;;;5.40;99.90;;;;;;4997172;28;20198;-78
2020/12/27 07:17:41;;;;;;;0.83;0.60;;;5.40;99.90;;;;;;4997306;28;20190;-78
2020/12/27 07:20:15;;;;;;;0.87;0.57;;;5.50;99.90;;;;;;5013439;28;20183;-78
2020/12/27 07:22:42;;;;;;;0.77;0.53;;;5.40;99.90;;;;;;4998701;28;20240;-78
2020/12/27 07:25:11;;;;;;;0.63;0.60;;;5.50;99.90;;;;;;4997592;28;20202;-78
2020/12/27 07:27:39;;;;;;;0.60;0.60;;;5.40;99.90;;;;;;4996287;28;20187;-78
2020/12/27 07:30:05;;;;;;;0.60;0.60;;;5.50;99.90;;;;;;5013192;28;20233;-78
2020/12/27 07:32:31;;;;;;;1.47;0.60;;;5.50;99.90;;;;;;5012624;28;20178;-79
2020/12/27 07:34:56;;;;;;;0.60;0.60;;;5.60;99.90;;;;;;4996863;28;20203;-78
2020/12/27 07:37:22;;;;;;;0.80;0.70;;;5.60;99.90;;;;;;5012968;28;20247;-79
2020/12/27 07:39:48;;;;;;;0.60;0.60;;;5.50;99.90;;;;;;4996676;28;20179;-78
2020/12/27 07:42:29;;;;;;;0.70;0.60;;;5.60;99.90;;;;;;5014757;28;20221;-79
2020/12/27 07:44:56;;;;;;;1.00;0.60;;;5.60;99.90;;;;;;4996353;28;20206;-78
2020/12/27 07:47:22;;;;;;;0.63;0.60;;;5.50;99.90;;;;;;4996575;28;20639;-78
2020/12/27 07:50:14;;;;;;;0.70;0.70;;;5.50;99.90;;;;;;5012784;28;20213;-78
2020/12/27 07:52:43;;;;;;;1.13;0.50;;;5.50;99.90;;;;;;4996666;28;20245;-78
2020/12/27 07:55:08;;;;;;;0.80;0.50;;;5.50;99.90;;;;;;5012942;28;20208;-79
2020/12/27 07:57:34;;;;;;;1.00;0.60;;;5.50;99.90;;;;;;5012976;28;20171;-78
2020/12/27 08:00:06;;;;;;;0.63;0.53;;;5.50;99.90;;;;;;4996868;28;20694;-78
2020/12/27 08:02:32;;;;;;;0.50;0.50;;;5.50;99.90;;;;;;4996718;28;20185;-79
2020/12/27 08:05:00;;;;;;;0.40;0.40;;;5.40;99.90;;;;;;4996275;28;20215;-78
2020/12/27 08:07:26;;;;;;;0.70;0.50;;;5.50;99.90;;;;;;4996160;28;20194;-78
2020/12/27 08:09:51;;;;;;;0.70;0.50;;;5.50;99.90;;;;;;4996079;28;20207;-78
2020/12/27 08:12:17;;;;;;;0.40;0.40;;;5.50;99.90;;;;;;4996244;28;20187;-78
2020/12/27 08:14:42;;;;;;;0.87;0.70;;;5.50;99.90;;;;;;4996192;28;20203;-78
2020/12/27 08:17:14;;;;;;;0.80;0.70;;;5.40;99.90;;;;;;4996238;28;20665;-78
2020/12/27 08:19:39;;;;;;;0.67;0.60;;;5.40;99.90;;;;;;4996015;28;20279;-78
2020/12/27 08:22:05;;;;;;;1.23;0.60;;;5.40;99.90;;;;;;5012767;28;20583;-78
2020/12/27 08:24:30;;;;;;;1.13;0.60;;;5.40;99.90;;;;;;4995778;28;20744;-78
2020/12/27 08:26:56;;;;;;;0.70;0.60;;;5.50;99.90;;;;;;4994660;28;20186;-78
2020/12/27 08:29:25;;;;;;;1.13;0.50;;;5.50;99.90;;;;;;4994702;28;20210;-79
2020/12/27 08:31:55;;;;;;;0.47;0.47;;;5.60;99.90;;;;;;4995146;28;20223;-78
2020/12/27 08:34:25;;;;;;;0.60;0.60;;;5.60;99.90;;;;;;4991282;28;20287;-79
2020/12/27 08:36:57;;;;;;;0.77;0.40;;;5.60;99.90;;;;;;4975471;28;20192;-80
2020/12/27 08:39:47;;;;;;;0.83;0.60;;;5.60;99.90;;;;;;4993180;28;20275;-81
2020/12/27 08:42:19;;;;;;;1.00;0.40;;;5.60;99.90;;;;;;5018502;28;20591;-79
2020/12/27 08:44:46;;;;;;;0.80;0.43;;;5.70;99.90;;;;;;5028177;28;20270;-76
2020/12/27 08:47:50;;;;;;;0.80;0.50;;;5.80;99.90;;;;;;5011984;28;20175;-79
2020/12/27 08:50:17;;;;;;;0.50;0.50;;;5.80;99.90;;;;;;5010610;28;20218;-80
2020/12/27 08:52:59;;;;;;;0.83;0.50;;;5.80;99.90;;;;;;4994907;28;20183;-81
2020/12/27 08:55:29;;;;;;;1.47;0.50;;;5.90;99.90;;;;;;4995516;28;20215;-81
2020/12/27 08:57:55;;;;;;;1.03;0.57;;;5.90;99.90;;;;;;5003207;28;20538;-79
2020/12/27 09:00:21;;;;;;;0.47;0.43;;;5.90;99.90;;;;;;4999930;28;20183;-81
2020/12/27 09:02:56;;;;;;;0.73;0.50;;;5.90;99.90;;;;;;5000025;28;20215;-81
2020/12/27 09:05:28;;;;;;;0.63;0.50;;;5.90;99.90;;;;;;4998896;28;20203;-80
2020/12/27 09:07:54;;;;;;;0.80;0.60;;;5.90;99.90;;;;;;4998979;28;20187;-80
2020/12/27 09:10:26;;;;;;;0.60;0.43;;;5.90;99.90;;;;;;5003585;28;20215;-82
2020/12/27 09:12:58;;;;;;;0.43;0.43;;;5.90;99.90;;;;;;5015851;28;20164;-78
2020/12/27 09:15:24;;;;;;;0.60;0.60;;;6.00;99.90;;;;;;5015674;28;20203;-80
2020/12/27 09:18:00;;;;;;;0.97;0.60;;;6.00;99.90;;;;;;4999767;28;20180;-80
2020/12/27 09:20:26;;;;;;;0.33;0.33;;;5.90;99.90;;;;;;4997291;28;20389;-81
2020/12/27 09:22:52;;;;;;;0.70;0.50;;;6.00;99.90;;;;;;5000549;28;20548;-78
2020/12/27 09:25:20;;;;;;;0.67;0.50;;;5.90;99.90;;;;;;5000674;28;20191;-79
2020/12/27 09:27:46;;;;;;;0.83;0.43;;;5.90;99.90;;;;;;5013757;28;20183;-80
2020/12/27 09:30:25;;;;;;;0.70;0.60;;;5.90;99.90;;;;;;4997207;28;20211;-79
2020/12/27 09:32:58;;;;;;;0.50;0.50;;;5.90;99.90;;;;;;4999408;28;20168;-79
2020/12/27 09:35:24;;;;;;;1.73;0.60;;;5.90;99.90;;;;;;5005326;28;20297;-77
2020/12/27 09:37:49;;;;;;;0.83;0.60;;;5.80;99.90;;;;;;4981967;28;20275;-76
2020/12/27 09:40:16;;;;;;;0.50;0.50;;;5.80;99.90;;;;;;4983552;28;20533;-80
2020/12/27 09:42:42;;;;;;;0.57;0.53;;;5.80;99.90;;;;;;4984266;28;20179;-80
2020/12/27 09:45:18;;;;;;;1.00;0.60;;;5.80;99.90;;;;;;4981969;28;20593;-79
2020/12/27 09:47:55;;;;;;;0.50;0.43;;;5.90;99.90;;;;;;4998212;28;20530;-80
2020/12/27 09:50:28;;;;;;;0.47;0.47;;;5.90;99.90;;;;;;4982436;28;20580;-79
2020/12/27 09:52:53;;;;;;;0.50;0.40;;;5.90;99.90;;;;;;4982572;28;20218;-79
2020/12/27 09:55:19;;;;;;;1.13;0.50;;;6.00;99.90;;;;;;4990233;28;20215;-78
2020/12/27 09:57:45;;;;;;;0.40;0.40;;;6.00;99.90;;;;;;4963533;28;20192;-79
2020/12/27 10:00:10;;;;;;;0.60;0.47;;;6.00;99.90;;;;;;4977966;28;20700;-79
2020/12/27 10:02:36;;;;;;;0.53;0.40;;;6.00;99.90;;;;;;4962143;28;20191;-80
2020/12/27 10:05:02;;;;;;;1.77;0.50;;;6.00;99.90;;;;;;4978425;28;20582;-77
2020/12/27 10:07:27;;;;;;;0.50;0.50;;;6.10;99.90;;;;;;4977699;28;20664;-78
2020/12/27 10:09:53;;;;;;;0.43;0.43;;;6.00;99.90;;;;;;4968915;28;20687;-80
2020/12/27 10:12:19;;;;;;;0.40;0.40;;;6.00;99.90;;;;;;5013756;28;20187;-78
2020/12/27 10:14:45;;;;;;;0.60;0.50;;;5.90;99.90;;;;;;5030076;28;20199;-78
2020/12/27 10:17:10;;;;;;;0.40;0.40;;;5.80;99.90;;;;;;5013377;28;20181;-79
2020/12/27 10:19:36;;;;;;;0.80;0.40;;;5.80;99.90;;;;;;5000096;28;20223;-77
2020/12/27 10:22:02;;;;;;;0.50;0.50;;;5.70;99.90;;;;;;4977793;28;20279;-79
2020/12/27 10:24:31;;;;;;;0.50;0.50;;;5.70;99.90;;;;;;4962049;28;20226;-79
2020/12/27 10:26:57;;;;;;;0.40;0.30;;;5.70;99.90;;;;;;4986742;28;20288;-79
2020/12/27 10:29:22;;;;;;;0.93;0.50;;;5.70;99.90;;;;;;5018656;28;20761;-80
2020/12/27 10:31:51;;;;;;;0.50;0.50;;;5.70;99.90;;;;;;4961694;28;20489;-79
2020/12/27 10:34:17;;;;;;;0.93;0.57;;;5.70;99.90;;;;;;4964761;28;20265;-78
2020/12/27 10:36:47;;;;;;;0.53;0.50;;;5.80;99.90;;;;;;5023208;28;20184;-79
2020/12/27 10:39:13;;;;;;;0.53;0.47;;;5.80;99.90;;;;;;4980948;28;20183;-76
2020/12/27 10:41:48;;;;;;;0.57;0.57;;;5.80;99.90;;;;;;4982107;28;20183;-80
2020/12/27 10:44:15;;;;;;;0.50;0.50;;;5.90;99.90;;;;;;4995881;28;20575;-77
2020/12/27 10:46:41;;;;;;;0.80;0.40;;;5.90;99.90;;;;;;4969769;28;20289;-79
2020/12/27 10:49:06;;;;;;;0.60;0.43;;;5.90;99.90;;;;;;4978037;28;20231;-76
2020/12/27 10:51:39;;;;;;;0.57;0.57;;;5.90;99.90;;;;;;4985438;28;20176;-76
2020/12/27 10:54:05;;;;;;;0.40;0.40;;;6.00;99.90;;;;;;4997312;28;20204;-76
2020/12/27 10:56:31;;;;;;;0.50;0.40;;;5.90;99.90;;;;;;4997182;28;20188;-76
2020/12/27 10:58:58;;;;;;;0.73;0.60;;;6.00;99.90;;;;;;4977376;28;20212;-76
2020/12/27 11:01:23;;;;;;;0.60;0.50;;;5.90;99.90;;;;;;4967334;28;20187;-77
2020/12/27 11:03:49;;;;;;;1.87;0.60;;;6.00;99.90;;;;;;5019354;28;20185;-76
2020/12/27 11:06:14;;;;;;;0.40;0.40;;;6.00;99.90;;;;;;4985355;28;20222;-76
2020/12/27 11:08:40;;;;;;;0.50;0.50;;;5.90;99.90;;;;;;5005745;28;20197;-77
2020/12/27 11:11:05;;;;;;;2.00;0.60;;;6.00;99.90;;;;;;5016670;28;20204;-77
2020/12/27 11:13:31;;;;;;;0.50;0.50;;;6.00;99.90;;;;;;5004646;28;20271;-76
2020/12/27 11:15:57;;;;;;;0.50;0.50;;;6.00;99.90;;;;;;4995893;28;20253;-76
2020/12/27 11:18:22;;;;;;;0.90;0.57;;;6.10;99.90;;;;;;4997806;28;20184;-76
2020/12/27 11:20:48;;;;;;;0.77;0.70;;;6.10;99.90;;;;;;4994220;28;20184;-75
2020/12/27 11:23:13;;;;;;;0.50;0.50;;;6.10;99.90;;;;;;5024243;28;20784;-77
2020/12/27 11:25:39;;;;;;;0.70;0.70;;;6.10;99.90;;;;;;4971266;28;20696;-77
2020/12/27 11:28:04;;;;;;;0.50;0.50;;;6.10;99.90;;;;;;5017582;28;20180;-78
2020/12/27 11:30:30;;;;;;;0.97;0.70;;;6.10;99.90;;;;;;4976731;28;20777;-77
2020/12/27 11:32:55;;;;;;;0.80;0.70;;;6.10;99.90;;;;;;4997725;28;20757;-78
2020/12/27 11:35:21;;;;;;;0.40;0.40;;;6.10;99.90;;;;;;5010189;28;20664;-78
2020/12/27 11:37:46;;;;;;;1.50;0.70;;;6.20;99.90;;;;;;4972658;28;20568;-79
2020/12/27 11:40:12;;;;;;;0.70;0.53;;;6.20;99.90;;;;;;5001728;28;20184;-78
2020/12/27 11:42:38;;;;;;;0.77;0.53;;;6.20;99.90;;;;;;4976240;28;20672;-78
2020/12/27 11:45:04;;;;;;;0.50;0.50;;;6.20;99.90;;;;;;4964697;28;20572;-75
2020/12/27 11:47:29;;;;;;;1.53;0.67;;;6.30;99.90;;;;;;5020897;28;20176;-75
2020/12/27 11:49:55;;;;;;;0.57;0.50;;;6.30;99.90;;;;;;5003863;28;20733;-76
2020/12/27 11:52:24;;;;;;;0.80;0.67;;;6.30;99.90;;;;;;5013791;28;20176;-77
2020/12/27 11:54:50;;;;;;;1.00;0.70;;;6.40;99.90;;;;;;4992862;28;20306;-77
2020/12/27 11:57:16;;;;;;;4.67;2.30;;;6.40;99.90;;;;;;4990280;28;20196;-77
2020/12/27 11:59:41;;;;;;;15.67;8.13;;;6.40;99.90;;;;;;5011131;28;20681;-77
2020/12/27 12:02:07;;;;;;;12.07;5.60;;;6.30;99.90;;;;;;5010940;28;20670;-77
2020/12/27 12:04:32;;;;;;;25.73;11.17;;;6.20;99.90;;;;;;5007840;28;20205;-77
2020/12/27 12:06:58;;;;;;;5.93;4.73;;;6.20;99.90;;;;;;4993740;28;20180;-77
2020/12/27 12:09:23;;;;;;;1.20;1.10;;;6.10;99.90;;;;;;4994180;28;20202;-77
2020/12/27 12:11:49;;;;;;;1.20;1.10;;;6.00;99.90;;;;;;4994368;28;20171;-77
2020/12/27 12:14:15;;;;;;;0.70;0.70;;;6.00;99.90;;;;;;4995072;28;20728;-77
2020/12/27 12:16:40;;;;;;;6.40;4.63;;;5.90;99.90;;;;;;4990640;28;20185;-76
2020/12/27 12:19:06;;;;;;;8.87;5.83;;;5.80;99.90;;;;;;4991985;28;20241;-76
2020/12/27 12:21:32;;;;;;;2.47;2.10;;;5.80;99.90;;;;;;4989809;28;20172;-79
2020/12/27 12:23:59;;;;;;;0.83;0.80;;;5.70;99.90;;;;;;5010165;28;20188;-78
2020/12/27 12:26:26;;;;;;;2.47;1.93;;;5.70;99.90;;;;;;4978902;28;20183;-78
2020/12/27 12:28:51;;;;;;;3.67;2.67;;;5.60;99.90;;;;;;4988469;28;20190;-78
2020/12/27 12:31:17;;;;;;;4.97;3.97;;;5.60;99.90;;;;;;4992661;28;20182;-77
2020/12/27 12:33:46;;;;;;;13.50;8.77;;;5.50;99.90;;;;;;4995206;28;20240;-77
2020/12/27 12:36:13;;;;;;;1.30;0.90;;;5.50;99.90;;;;;;4994510;28;20659;-77
2020/12/27 12:38:38;;;;;;;5.17;4.23;;;5.40;99.90;;;;;;5011306;28;20179;-79
2020/12/27 12:41:04;;;;;;;8.00;3.73;;;5.30;99.90;;;;;;5011287;28;20551;-78
2020/12/27 12:43:31;;;;;;;3.93;2.20;;;5.30;99.90;;;;;;5011603;28;20190;-79
2020/12/27 12:45:59;;;;;;;1.70;1.20;;;5.20;99.90;;;;;;5027873;28;20206;-78
2020/12/27 12:48:25;;;;;;;2.43;1.67;;;5.20;99.90;;;;;;5011000;28;20179;-78
2020/12/27 12:50:51;;;;;;;1.50;0.97;;;5.20;99.90;;;;;;5011175;28;20266;-78
2020/12/27 12:53:16;;;;;;;1.30;1.20;;;5.20;99.90;;;;;;5027558;28;20222;-78
2020/12/27 12:55:42;;;;;;;2.77;1.47;;;5.10;99.90;;;;;;5038728;23;20237;-76
2020/12/27 12:58:07;;;;;;;2.53;2.23;;;5.10;99.90;;;;;;5010497;28;20182;-76
2020/12/27 13:00:33;;;;;;;0.80;0.70;;;5.10;99.90;;;;;;5010771;28;20265;-76